createdAt,value
2019-03-21T00:00:07.198Z,18.06
2019-03-21T00:01:03.923Z,18.06
2019-03-21T00:02:01.844Z,18.06
2019-03-21T00:02:58.577Z,18.06
2019-03-21T00:03:55.285Z,18.06
2019-03-21T00:04:51.994Z,18.06
2019-03-21T00:05:48.707Z,18.06
2019-03-21T00:06:45.412Z,18.00
2019-03-21T00:07:42.125Z,18.06
2019-03-21T00:08:38.870Z,18.00
2019-03-21T00:09:35.570Z,18.00
2019-03-21T00:10:32.282Z,18.00
2019-03-21T00:11:29.002Z,18.00
2019-03-21T00:12:25.705Z,18.00
2019-03-21T00:13:22.439Z,18.00
2019-03-21T00:14:19.146Z,18.00
2019-03-21T00:15:15.853Z,18.00
2019-03-21T00:16:13.569Z,18.00
2019-03-21T00:17:10.365Z,18.00
2019-03-21T00:18:07.078Z,18.00
2019-03-21T00:19:03.809Z,18.00
2019-03-21T00:20:00.526Z,18.00
2019-03-21T00:20:57.234Z,18.00
2019-03-21T00:21:53.949Z,18.00
2019-03-21T00:22:50.713Z,18.00
2019-03-21T00:23:47.400Z,18.00
2019-03-21T00:24:44.129Z,18.00
2019-03-21T00:25:40.842Z,18.00
2019-03-21T00:26:37.549Z,18.00
2019-03-21T00:27:34.262Z,18.00
2019-03-21T00:28:30.960Z,18.00
2019-03-21T00:29:27.694Z,18.00
2019-03-21T00:30:24.409Z,18.00
2019-03-21T00:31:21.117Z,18.00
2019-03-21T00:32:17.839Z,18.00
2019-03-21T00:33:14.545Z,18.00
2019-03-21T00:34:11.285Z,18.00
2019-03-21T00:35:08.010Z,18.00
2019-03-21T00:36:04.712Z,17.94
2019-03-21T00:37:01.417Z,17.94
2019-03-21T00:37:58.124Z,17.94
2019-03-21T00:38:54.856Z,17.94
2019-03-21T00:39:51.564Z,17.94
2019-03-21T00:40:48.269Z,17.94
2019-03-21T00:41:44.986Z,17.94
2019-03-21T00:42:41.692Z,17.94
2019-03-21T00:43:38.397Z,17.94
2019-03-21T00:44:35.130Z,17.94
2019-03-21T00:45:31.841Z,17.94
2019-03-21T00:46:28.553Z,17.94
2019-03-21T00:47:25.260Z,17.94
2019-03-21T00:48:21.977Z,17.94
2019-03-21T00:49:18.721Z,17.94
2019-03-21T00:50:15.431Z,17.94
2019-03-21T00:51:12.157Z,17.94
2019-03-21T00:52:08.878Z,17.94
2019-03-21T00:53:05.589Z,17.94
2019-03-21T00:54:02.298Z,17.94
2019-03-21T00:54:59.038Z,17.94
2019-03-21T00:55:55.758Z,17.94
2019-03-21T00:56:52.464Z,17.94
2019-03-21T00:57:49.177Z,17.94
2019-03-21T00:58:45.883Z,17.94
2019-03-21T00:59:42.588Z,17.94
2019-03-21T01:00:39.300Z,17.94
2019-03-21T01:01:36.009Z,17.94
2019-03-21T01:02:32.721Z,17.94
2019-03-21T01:03:29.428Z,17.94
2019-03-21T01:04:26.138Z,17.94
2019-03-21T01:05:22.843Z,17.87
2019-03-21T01:06:19.578Z,17.94
2019-03-21T01:07:16.292Z,17.94
2019-03-21T01:08:12.997Z,17.87
2019-03-21T01:09:09.720Z,17.87
2019-03-21T01:10:06.442Z,17.87
2019-03-21T01:11:03.183Z,17.87
2019-03-21T01:11:59.889Z,17.87
2019-03-21T01:12:56.604Z,17.87
2019-03-21T01:13:53.308Z,17.87
2019-03-21T01:14:50.008Z,17.87
2019-03-21T01:15:46.725Z,17.87
2019-03-21T01:16:43.441Z,17.87
2019-03-21T01:17:40.145Z,17.87
2019-03-21T01:18:36.870Z,17.87
2019-03-21T01:19:33.595Z,17.87
2019-03-21T01:20:30.281Z,17.87
2019-03-21T01:21:27.013Z,17.87
2019-03-21T01:22:23.708Z,17.87
2019-03-21T01:23:20.411Z,17.87
2019-03-21T01:24:17.105Z,17.87
2019-03-21T01:25:13.812Z,17.87
2019-03-21T01:26:10.536Z,17.87
2019-03-21T01:27:07.241Z,17.87
2019-03-21T01:28:03.940Z,17.87
2019-03-21T01:29:00.633Z,17.87
2019-03-21T01:29:57.338Z,17.87
2019-03-21T01:30:54.057Z,17.87
2019-03-21T01:31:50.780Z,17.87
2019-03-21T01:32:47.475Z,17.81
2019-03-21T01:33:44.168Z,17.87
2019-03-21T01:34:40.864Z,17.87
2019-03-21T01:35:37.569Z,17.87
2019-03-21T01:36:34.284Z,17.81
2019-03-21T01:37:30.884Z,17.81
2019-03-21T01:38:27.593Z,17.87
2019-03-21T01:39:24.288Z,17.81
2019-03-21T01:40:20.992Z,17.81
2019-03-21T01:41:17.697Z,17.81
2019-03-21T01:42:14.421Z,17.81
2019-03-21T01:43:11.133Z,17.81
2019-03-21T01:44:07.834Z,17.81
2019-03-21T01:45:04.533Z,17.81
2019-03-21T01:46:01.233Z,17.81
2019-03-21T01:46:57.921Z,17.81
2019-03-21T01:47:54.654Z,17.81
2019-03-21T01:48:51.360Z,17.81
2019-03-21T01:49:48.061Z,17.81
2019-03-21T01:50:44.762Z,17.81
2019-03-21T01:51:41.472Z,17.81
2019-03-21T01:52:38.164Z,17.81
2019-03-21T01:53:34.896Z,17.81
2019-03-21T01:54:31.588Z,17.81
2019-03-21T01:55:28.302Z,17.81
2019-03-21T01:56:24.993Z,17.81
2019-03-21T01:57:21.688Z,17.81
2019-03-21T01:58:18.413Z,17.81
2019-03-21T01:59:15.132Z,17.81
2019-03-21T02:00:11.838Z,17.81
2019-03-21T02:01:08.953Z,17.81
2019-03-21T02:02:05.840Z,17.81
2019-03-21T02:03:02.564Z,17.81
2019-03-21T02:03:59.254Z,17.81
2019-03-21T02:04:55.961Z,17.81
2019-03-21T02:05:52.665Z,17.81
2019-03-21T02:06:49.381Z,17.81
2019-03-21T02:07:46.072Z,17.81
2019-03-21T02:08:42.803Z,17.81
2019-03-21T02:09:39.495Z,17.81
2019-03-21T02:10:36.193Z,17.81
2019-03-21T02:11:32.889Z,17.75
2019-03-21T02:12:29.593Z,17.81
2019-03-21T02:13:26.321Z,17.75
2019-03-21T02:14:23.021Z,17.75
2019-03-21T02:15:19.721Z,17.75
2019-03-21T02:16:16.419Z,17.75
2019-03-21T02:17:13.121Z,17.75
2019-03-21T02:18:09.820Z,17.81
2019-03-21T02:19:06.554Z,17.75
2019-03-21T02:20:03.261Z,17.75
2019-03-21T02:20:59.952Z,17.75
2019-03-21T02:21:56.657Z,17.75
2019-03-21T02:22:53.352Z,17.75
2019-03-21T02:23:50.057Z,17.75
2019-03-21T02:24:46.781Z,17.75
2019-03-21T02:25:43.473Z,17.75
2019-03-21T02:26:40.177Z,17.75
2019-03-21T02:27:36.868Z,17.75
2019-03-21T02:28:33.570Z,17.75
2019-03-21T02:29:30.284Z,17.75
2019-03-21T02:30:27.000Z,17.75
2019-03-21T02:31:23.694Z,17.75
2019-03-21T02:32:20.393Z,17.75
2019-03-21T02:33:17.098Z,17.75
2019-03-21T02:34:13.797Z,17.75
2019-03-21T02:35:10.492Z,17.75
2019-03-21T02:36:07.202Z,17.75
2019-03-21T02:37:03.901Z,17.75
2019-03-21T02:38:00.592Z,17.75
2019-03-21T02:38:57.285Z,17.75
2019-03-21T02:39:59.727Z,17.75
2019-03-21T02:40:52.517Z,17.75
2019-03-21T02:41:49.228Z,17.75
2019-03-21T02:42:45.925Z,17.75
2019-03-21T02:43:42.627Z,17.75
2019-03-21T02:44:39.375Z,17.75
2019-03-21T02:45:36.063Z,17.75
2019-03-21T02:46:32.765Z,17.75
2019-03-21T02:47:29.452Z,17.75
2019-03-21T02:48:26.153Z,17.75
2019-03-21T02:49:22.849Z,17.75
2019-03-21T02:50:19.541Z,17.69
2019-03-21T02:51:16.265Z,17.69
2019-03-21T02:52:12.965Z,17.69
2019-03-21T02:53:09.661Z,17.69
2019-03-21T02:54:06.366Z,17.69
2019-03-21T02:55:03.065Z,17.69
2019-03-21T02:55:59.793Z,17.69
2019-03-21T02:56:56.492Z,17.69
2019-03-21T02:57:53.201Z,17.69
2019-03-21T02:58:49.903Z,17.69
2019-03-21T02:59:46.598Z,17.69
2019-03-21T03:00:43.308Z,17.69
2019-03-21T03:01:40.029Z,17.69
2019-03-21T03:02:37.347Z,17.69
2019-03-21T03:03:34.135Z,17.69
2019-03-21T03:04:30.843Z,17.69
2019-03-21T03:05:27.530Z,17.69
2019-03-21T03:06:24.260Z,17.69
2019-03-21T03:07:20.957Z,17.69
2019-03-21T03:08:17.650Z,17.69
2019-03-21T03:09:14.340Z,17.69
2019-03-21T03:10:11.049Z,17.69
2019-03-21T03:11:10.621Z,17.69
2019-03-21T03:12:06.254Z,17.69
2019-03-21T03:13:02.963Z,17.69
2019-03-21T03:13:59.661Z,17.69
2019-03-21T03:14:56.350Z,17.69
2019-03-21T03:15:53.052Z,17.69
2019-03-21T03:16:49.779Z,17.69
2019-03-21T03:17:46.481Z,17.69
2019-03-21T03:18:43.185Z,17.69
2019-03-21T03:19:39.886Z,17.69
2019-03-21T03:20:36.583Z,17.69
2019-03-21T03:21:33.306Z,17.69
2019-03-21T03:22:30.021Z,17.69
2019-03-21T03:23:26.704Z,17.69
2019-03-21T03:24:23.409Z,17.69
2019-03-21T03:25:20.109Z,17.62
2019-03-21T03:26:16.811Z,17.69
2019-03-21T03:27:13.526Z,17.62
2019-03-21T03:28:10.222Z,17.69
2019-03-21T03:29:06.928Z,17.62
2019-03-21T03:30:03.629Z,17.62
2019-03-21T03:31:00.322Z,17.62
2019-03-21T03:31:57.050Z,17.62
2019-03-21T03:32:53.745Z,17.62
2019-03-21T03:33:50.451Z,17.62
2019-03-21T03:34:47.149Z,17.62
2019-03-21T03:35:43.846Z,17.62
2019-03-21T03:36:40.555Z,17.62
2019-03-21T03:37:37.267Z,17.62
2019-03-21T03:38:33.980Z,17.62
2019-03-21T03:39:30.687Z,17.62
2019-03-21T03:40:27.389Z,17.62
2019-03-21T03:41:24.085Z,17.62
2019-03-21T03:42:20.798Z,17.62
2019-03-21T03:43:17.508Z,17.62
2019-03-21T03:44:14.197Z,17.62
2019-03-21T03:45:10.901Z,17.62
2019-03-21T03:46:07.603Z,17.62
2019-03-21T03:47:04.355Z,17.62
2019-03-21T03:48:01.052Z,17.62
2019-03-21T03:48:57.729Z,17.62
2019-03-21T03:49:54.450Z,17.62
2019-03-21T03:50:51.130Z,17.62
2019-03-21T03:51:47.838Z,17.62
2019-03-21T03:52:44.557Z,17.62
2019-03-21T03:53:42.657Z,17.62
2019-03-21T03:54:39.469Z,17.62
2019-03-21T03:55:36.176Z,17.62
2019-03-21T03:56:32.864Z,17.62
2019-03-21T03:57:29.600Z,17.62
2019-03-21T03:58:26.301Z,17.62
2019-03-21T03:59:22.994Z,17.62
2019-03-21T04:00:19.700Z,17.62
2019-03-21T04:01:16.400Z,17.62
2019-03-21T04:02:13.097Z,17.56
2019-03-21T04:03:09.796Z,17.56
2019-03-21T04:04:06.498Z,17.62
2019-03-21T04:05:03.194Z,17.62
2019-03-21T04:05:59.889Z,17.62
2019-03-21T04:06:56.599Z,17.56
2019-03-21T04:07:53.313Z,17.56
2019-03-21T04:08:50.013Z,17.56
2019-03-21T04:09:46.722Z,17.62
2019-03-21T04:10:43.420Z,17.56
2019-03-21T04:11:40.121Z,17.56
2019-03-21T04:12:36.828Z,17.56
2019-03-21T04:13:33.445Z,17.56
2019-03-21T04:14:30.137Z,17.56
2019-03-21T04:15:26.845Z,17.56
2019-03-21T04:16:23.554Z,17.56
2019-03-21T04:17:20.259Z,17.56
2019-03-21T04:18:16.961Z,17.56
2019-03-21T04:19:13.671Z,17.56
2019-03-21T04:20:10.345Z,17.56
2019-03-21T04:21:07.048Z,17.56
2019-03-21T04:22:03.753Z,17.56
2019-03-21T04:23:00.480Z,17.56
2019-03-21T04:23:59.776Z,17.56
2019-03-21T04:24:55.681Z,17.56
2019-03-21T04:25:52.397Z,17.56
2019-03-21T04:26:49.095Z,17.56
2019-03-21T04:27:45.785Z,17.56
2019-03-21T04:28:42.518Z,17.56
2019-03-21T04:29:39.208Z,17.56
2019-03-21T04:30:35.896Z,17.56
2019-03-21T04:31:32.597Z,17.56
2019-03-21T04:32:29.289Z,17.56
2019-03-21T04:33:25.988Z,17.56
2019-03-21T04:34:22.688Z,17.56
2019-03-21T04:35:19.389Z,17.56
2019-03-21T04:36:16.084Z,17.56
2019-03-21T04:37:12.778Z,17.56
2019-03-21T04:38:09.510Z,17.56
2019-03-21T04:39:06.202Z,17.56
2019-03-21T04:40:02.903Z,17.56
2019-03-21T04:40:59.610Z,17.56
2019-03-21T04:41:56.301Z,17.56
2019-03-21T04:42:53.009Z,17.56
2019-03-21T04:43:49.726Z,17.56
2019-03-21T04:44:46.428Z,17.56
2019-03-21T04:45:43.128Z,17.56
2019-03-21T04:46:39.832Z,17.56
2019-03-21T04:47:36.536Z,17.56
2019-03-21T04:48:33.265Z,17.56
2019-03-21T04:49:29.965Z,17.56
2019-03-21T04:50:26.674Z,17.56
2019-03-21T04:51:23.369Z,17.56
2019-03-21T04:52:20.064Z,17.50
2019-03-21T04:53:16.761Z,17.50
2019-03-21T04:54:13.493Z,17.56
2019-03-21T04:55:10.186Z,17.50
2019-03-21T04:56:06.881Z,17.50
2019-03-21T04:57:03.590Z,17.50
2019-03-21T04:58:00.293Z,17.50
2019-03-21T04:58:57.028Z,17.50
2019-03-21T04:59:53.722Z,17.50
2019-03-21T05:00:50.417Z,17.50
2019-03-21T05:01:47.120Z,17.50
2019-03-21T05:02:43.813Z,17.50
2019-03-21T05:03:40.536Z,17.50
2019-03-21T05:04:37.236Z,17.50
2019-03-21T05:05:33.941Z,17.50
2019-03-21T05:06:32.818Z,17.50
2019-03-21T05:07:29.141Z,17.50
2019-03-21T05:08:25.828Z,17.50
2019-03-21T05:09:22.561Z,17.50
2019-03-21T05:10:19.261Z,17.50
2019-03-21T05:11:15.961Z,17.50
2019-03-21T05:12:12.666Z,17.50
2019-03-21T05:13:09.360Z,17.50
2019-03-21T05:14:06.098Z,17.50
2019-03-21T05:15:02.799Z,17.50
2019-03-21T05:15:59.501Z,17.50
2019-03-21T05:16:56.193Z,17.50
2019-03-21T05:17:52.790Z,17.50
2019-03-21T05:18:49.493Z,17.50
2019-03-21T05:19:46.197Z,17.50
2019-03-21T05:20:42.901Z,17.50
2019-03-21T05:21:39.604Z,17.50
2019-03-21T05:22:36.296Z,17.50
2019-03-21T05:23:32.910Z,17.50
2019-03-21T05:24:29.632Z,17.50
2019-03-21T05:25:26.323Z,17.50
2019-03-21T05:26:23.023Z,17.50
2019-03-21T05:27:19.721Z,17.50
2019-03-21T05:28:16.425Z,17.50
2019-03-21T05:29:13.152Z,17.50
2019-03-21T05:30:09.853Z,17.50
2019-03-21T05:31:06.559Z,17.50
2019-03-21T05:32:03.888Z,17.50
2019-03-21T05:33:00.757Z,17.50
2019-03-21T05:33:57.457Z,17.50
2019-03-21T05:34:54.166Z,17.50
2019-03-21T05:35:50.873Z,17.50
2019-03-21T05:36:50.220Z,17.44
2019-03-21T05:37:46.072Z,17.44
2019-03-21T05:38:42.769Z,17.44
2019-03-21T05:39:39.493Z,17.44
2019-03-21T05:40:36.189Z,17.44
2019-03-21T05:41:32.876Z,17.44
2019-03-21T05:42:29.569Z,17.44
2019-03-21T05:43:26.272Z,17.44
2019-03-21T05:44:22.969Z,17.44
2019-03-21T05:45:19.696Z,17.44
2019-03-21T05:46:26.135Z,17.44
2019-03-21T05:47:14.876Z,17.44
2019-03-21T05:48:11.492Z,17.44
2019-03-21T05:49:08.189Z,17.44
2019-03-21T05:50:04.928Z,17.44
2019-03-21T05:51:01.621Z,17.44
2019-03-21T05:51:58.332Z,17.44
2019-03-21T05:52:55.029Z,17.44
2019-03-21T05:53:51.736Z,17.44
2019-03-21T05:54:48.437Z,17.44
2019-03-21T05:55:45.148Z,17.44
2019-03-21T05:56:41.844Z,17.44
2019-03-21T05:57:38.543Z,17.44
2019-03-21T05:58:35.245Z,17.44
2019-03-21T05:59:31.951Z,17.44
2019-03-21T06:00:28.676Z,17.44
2019-03-21T06:01:25.379Z,17.44
2019-03-21T06:02:22.078Z,17.44
2019-03-21T06:03:18.790Z,17.44
2019-03-21T06:04:15.502Z,17.44
2019-03-21T06:05:12.220Z,17.44
2019-03-21T06:06:08.907Z,17.44
2019-03-21T06:07:05.600Z,17.44
2019-03-21T06:08:02.313Z,17.44
2019-03-21T06:08:59.000Z,17.44
2019-03-21T06:09:55.701Z,17.44
2019-03-21T06:10:52.429Z,17.44
2019-03-21T06:11:49.124Z,17.44
2019-03-21T06:12:45.823Z,17.44
2019-03-21T06:13:42.525Z,17.44
2019-03-21T06:14:39.232Z,17.44
2019-03-21T06:15:35.954Z,17.44
2019-03-21T06:16:37.581Z,17.44
2019-03-21T06:17:31.169Z,17.44
2019-03-21T06:18:27.864Z,17.44
2019-03-21T06:19:24.560Z,17.37
2019-03-21T06:20:21.272Z,17.37
2019-03-21T06:21:17.966Z,17.37
2019-03-21T06:22:14.657Z,17.37
2019-03-21T06:23:11.352Z,17.44
2019-03-21T06:24:08.057Z,17.44
2019-03-21T06:25:04.763Z,17.37
2019-03-21T06:26:01.667Z,17.37
2019-03-21T06:26:58.294Z,17.44
2019-03-21T06:27:55.005Z,17.37
2019-03-21T06:28:51.705Z,17.37
2019-03-21T06:29:48.405Z,17.37
2019-03-21T06:30:45.101Z,17.37
2019-03-21T06:31:41.830Z,17.37
2019-03-21T06:32:38.524Z,17.37
2019-03-21T06:33:35.216Z,17.37
2019-03-21T06:34:31.925Z,17.37
2019-03-21T06:35:28.713Z,17.37
2019-03-21T06:36:25.315Z,17.37
2019-03-21T06:37:22.017Z,17.37
2019-03-21T06:38:18.714Z,17.37
2019-03-21T06:39:15.408Z,17.37
2019-03-21T06:40:12.100Z,17.37
2019-03-21T06:41:08.795Z,17.37
2019-03-21T06:42:05.521Z,17.37
2019-03-21T06:43:02.216Z,17.37
2019-03-21T06:43:58.914Z,17.37
2019-03-21T06:44:58.417Z,17.37
2019-03-21T06:45:55.126Z,17.37
2019-03-21T06:46:51.827Z,17.37
2019-03-21T06:47:48.546Z,17.37
2019-03-21T06:48:45.237Z,17.37
2019-03-21T06:49:41.936Z,17.37
2019-03-21T06:50:38.637Z,17.37
2019-03-21T06:51:35.324Z,17.37
2019-03-21T06:52:32.060Z,17.37
2019-03-21T06:53:28.767Z,17.37
2019-03-21T06:54:25.463Z,17.37
2019-03-21T06:55:22.165Z,17.37
2019-03-21T06:56:18.870Z,17.37
2019-03-21T06:57:15.580Z,17.37
2019-03-21T06:58:12.292Z,17.37
2019-03-21T06:59:08.997Z,17.37
2019-03-21T07:00:05.704Z,17.37
2019-03-21T07:01:02.408Z,17.25
2019-03-21T07:01:59.109Z,16.69
2019-03-21T07:02:55.843Z,16.56
2019-03-21T07:03:52.536Z,16.62
2019-03-21T07:04:49.239Z,16.75
2019-03-21T07:05:45.941Z,17.81
2019-03-21T07:06:42.646Z,19.69
2019-03-21T07:07:39.345Z,22.06
2019-03-21T07:08:36.068Z,24.56
2019-03-21T07:09:32.811Z,26.69
2019-03-21T07:10:29.491Z,28.38
2019-03-21T07:11:26.190Z,29.63
2019-03-21T07:12:22.897Z,30.50
2019-03-21T07:13:19.629Z,31.12
2019-03-21T07:14:16.326Z,31.56
2019-03-21T07:15:13.025Z,31.94
2019-03-21T07:16:09.732Z,32.25
2019-03-21T07:17:06.433Z,32.50
2019-03-21T07:18:03.147Z,32.75
2019-03-21T07:18:59.874Z,33.00
2019-03-21T07:19:56.588Z,33.25
2019-03-21T07:20:53.289Z,33.50
2019-03-21T07:21:49.978Z,33.75
2019-03-21T07:22:46.681Z,33.94
2019-03-21T07:23:43.397Z,34.19
2019-03-21T07:24:40.092Z,34.44
2019-03-21T07:25:36.871Z,34.63
2019-03-21T07:26:33.573Z,34.88
2019-03-21T07:27:30.276Z,35.06
2019-03-21T07:28:27.000Z,35.31
2019-03-21T07:29:23.712Z,35.50
2019-03-21T07:30:20.417Z,35.69
2019-03-21T07:31:17.121Z,35.88
2019-03-21T07:32:13.828Z,36.00
2019-03-21T07:33:10.571Z,36.19
2019-03-21T07:34:07.248Z,36.31
2019-03-21T07:35:03.948Z,36.50
2019-03-21T07:36:00.649Z,36.63
2019-03-21T07:36:57.354Z,36.75
2019-03-21T07:37:54.065Z,36.88
2019-03-21T07:38:50.789Z,37.00
2019-03-21T07:39:47.497Z,37.13
2019-03-21T07:40:44.206Z,37.25
2019-03-21T07:41:40.906Z,37.38
2019-03-21T07:42:37.601Z,37.56
2019-03-21T07:43:34.305Z,37.69
2019-03-21T07:44:31.009Z,37.81
2019-03-21T07:45:27.719Z,37.88
2019-03-21T07:46:24.411Z,38.13
2019-03-21T07:47:21.109Z,38.31
2019-03-21T07:48:17.809Z,38.50
2019-03-21T07:49:14.535Z,38.63
2019-03-21T07:50:11.228Z,38.75
2019-03-21T07:51:07.937Z,38.88
2019-03-21T07:52:04.649Z,39.06
2019-03-21T07:53:01.346Z,39.25
2019-03-21T07:53:58.076Z,39.38
2019-03-21T07:54:54.765Z,39.50
2019-03-21T07:55:51.476Z,39.38
2019-03-21T07:56:48.189Z,39.13
2019-03-21T07:57:44.889Z,38.88
2019-03-21T07:58:41.589Z,38.69
2019-03-21T07:59:38.288Z,38.50
2019-03-21T08:00:34.998Z,38.38
2019-03-21T08:01:31.699Z,38.25
2019-03-21T08:02:28.397Z,38.13
2019-03-21T08:03:25.096Z,38.00
2019-03-21T08:04:21.817Z,37.94
2019-03-21T08:05:18.541Z,37.69
2019-03-21T08:06:15.225Z,37.25
2019-03-21T08:07:11.925Z,36.56
2019-03-21T08:08:08.625Z,35.50
2019-03-21T08:09:05.354Z,34.19
2019-03-21T08:10:02.049Z,32.81
2019-03-21T08:10:58.737Z,31.81
2019-03-21T08:11:55.444Z,31.81
2019-03-21T08:12:52.151Z,32.81
2019-03-21T08:13:48.852Z,34.31
2019-03-21T08:14:45.550Z,35.75
2019-03-21T08:15:42.152Z,37.06
2019-03-21T08:16:38.854Z,38.13
2019-03-21T08:17:35.567Z,38.81
2019-03-21T08:18:32.249Z,39.00
2019-03-21T08:19:28.973Z,38.88
2019-03-21T08:20:25.672Z,38.69
2019-03-21T08:21:22.377Z,38.50
2019-03-21T08:22:19.064Z,38.25
2019-03-21T08:23:15.659Z,38.06
2019-03-21T08:24:12.368Z,37.94
2019-03-21T08:25:09.089Z,37.81
2019-03-21T08:26:05.785Z,37.69
2019-03-21T08:27:02.486Z,37.38
2019-03-21T08:27:59.192Z,36.88
2019-03-21T08:28:55.888Z,36.19
2019-03-21T08:29:52.617Z,35.13
2019-03-21T08:30:49.316Z,33.88
2019-03-21T08:31:46.025Z,32.63
2019-03-21T08:32:42.761Z,31.69
2019-03-21T08:33:39.457Z,31.75
2019-03-21T08:34:36.165Z,32.81
2019-03-21T08:35:32.865Z,34.38
2019-03-21T08:36:29.572Z,35.94
2019-03-21T08:37:26.276Z,37.38
2019-03-21T08:38:22.997Z,38.19
2019-03-21T08:39:19.695Z,38.38
2019-03-21T08:40:16.420Z,38.25
2019-03-21T08:41:13.120Z,38.13
2019-03-21T08:42:09.851Z,37.94
2019-03-21T08:43:06.518Z,37.75
2019-03-21T08:44:03.200Z,37.56
2019-03-21T08:44:59.824Z,37.38
2019-03-21T08:45:56.425Z,37.06
2019-03-21T08:46:53.127Z,36.56
2019-03-21T08:47:49.825Z,35.81
2019-03-21T08:48:46.526Z,34.88
2019-03-21T08:49:43.224Z,33.69
2019-03-21T08:50:39.921Z,32.50
2019-03-21T08:51:36.632Z,31.56
2019-03-21T08:52:33.329Z,31.37
2019-03-21T08:53:30.037Z,32.31
2019-03-21T08:54:26.732Z,33.88
2019-03-21T08:55:23.460Z,35.56
2019-03-21T08:56:20.149Z,36.94
2019-03-21T08:57:16.836Z,37.69
2019-03-21T08:58:13.449Z,37.88
2019-03-21T08:59:10.150Z,37.88
2019-03-21T09:00:06.865Z,37.69
2019-03-21T09:01:03.590Z,37.50
2019-03-21T09:02:00.296Z,37.31
2019-03-21T09:02:57.006Z,37.00
2019-03-21T09:03:53.695Z,36.63
2019-03-21T09:04:50.398Z,36.06
2019-03-21T09:05:47.121Z,35.31
2019-03-21T09:06:43.818Z,34.44
2019-03-21T09:07:40.540Z,33.38
2019-03-21T09:08:37.238Z,32.25
2019-03-21T09:09:33.953Z,31.31
2019-03-21T09:10:30.678Z,31.00
2019-03-21T09:11:27.373Z,31.87
2019-03-21T09:12:24.064Z,33.31
2019-03-21T09:13:20.753Z,34.94
2019-03-21T09:14:17.461Z,36.38
2019-03-21T09:15:14.164Z,37.19
2019-03-21T09:16:11.095Z,37.44
2019-03-21T09:17:07.898Z,37.44
2019-03-21T09:18:04.602Z,37.25
2019-03-21T09:19:01.296Z,37.06
2019-03-21T09:19:58.002Z,36.81
2019-03-21T09:20:54.725Z,36.38
2019-03-21T09:21:51.420Z,36.00
2019-03-21T09:22:48.120Z,35.63
2019-03-21T09:23:44.818Z,35.38
2019-03-21T09:24:41.513Z,35.13
2019-03-21T09:25:38.221Z,34.88
2019-03-21T09:26:34.947Z,34.69
2019-03-21T09:27:31.665Z,34.50
2019-03-21T09:28:28.362Z,34.38
2019-03-21T09:29:25.058Z,34.25
2019-03-21T09:30:21.749Z,34.13
2019-03-21T09:31:18.489Z,34.00
2019-03-21T09:32:15.214Z,33.88
2019-03-21T09:33:11.876Z,33.75
2019-03-21T09:34:08.584Z,33.69
2019-03-21T09:35:05.281Z,33.63
2019-03-21T09:36:02.029Z,33.56
2019-03-21T09:36:58.733Z,33.50
2019-03-21T09:37:55.430Z,33.44
2019-03-21T09:38:52.128Z,33.38
2019-03-21T09:39:48.841Z,33.31
2019-03-21T09:40:45.537Z,33.25
2019-03-21T09:41:42.265Z,33.25
2019-03-21T09:42:38.960Z,33.19
2019-03-21T09:43:35.564Z,33.19
2019-03-21T09:44:32.262Z,33.25
2019-03-21T09:45:28.965Z,33.19
2019-03-21T09:46:25.697Z,33.19
2019-03-21T09:47:22.401Z,33.13
2019-03-21T09:48:19.114Z,33.13
2019-03-21T09:49:15.809Z,33.13
2019-03-21T09:50:12.514Z,33.06
2019-03-21T09:51:09.208Z,33.00
2019-03-21T09:52:05.917Z,32.94
2019-03-21T09:53:02.644Z,32.94
2019-03-21T09:54:09.305Z,32.88
2019-03-21T09:54:57.813Z,32.81
2019-03-21T09:55:54.505Z,32.81
2019-03-21T09:56:51.237Z,32.75
2019-03-21T09:57:47.934Z,32.88
2019-03-21T09:58:44.629Z,33.13
2019-03-21T09:59:41.337Z,31.50
2019-03-21T10:00:38.939Z,29.75
2019-03-21T10:01:35.641Z,28.19
2019-03-21T10:02:32.373Z,28.31
2019-03-21T10:03:29.069Z,29.56
2019-03-21T10:04:25.685Z,30.56
2019-03-21T10:05:22.384Z,31.00
2019-03-21T10:06:19.076Z,31.31
2019-03-21T10:07:15.805Z,31.44
2019-03-21T10:08:12.493Z,31.56
2019-03-21T10:09:09.197Z,31.62
2019-03-21T10:10:05.894Z,31.94
2019-03-21T10:11:02.597Z,32.38
2019-03-21T10:11:59.316Z,32.75
2019-03-21T10:12:56.040Z,33.00
2019-03-21T10:13:52.752Z,33.13
2019-03-21T10:14:49.449Z,33.19
2019-03-21T10:15:46.140Z,33.19
2019-03-21T10:16:42.841Z,33.13
2019-03-21T10:17:39.569Z,33.00
2019-03-21T10:18:36.265Z,32.69
2019-03-21T10:19:32.878Z,32.19
2019-03-21T10:20:29.586Z,31.62
2019-03-21T10:21:26.281Z,31.06
2019-03-21T10:22:22.993Z,30.62
2019-03-21T10:23:19.596Z,30.12
2019-03-21T10:24:16.305Z,29.69
2019-03-21T10:25:13.000Z,29.19
2019-03-21T10:26:09.709Z,28.62
2019-03-21T10:27:06.413Z,28.12
2019-03-21T10:28:03.113Z,27.62
2019-03-21T10:28:59.812Z,27.19
2019-03-21T10:29:56.519Z,26.87
2019-03-21T10:30:53.221Z,26.62
2019-03-21T10:31:49.917Z,26.44
2019-03-21T10:32:46.638Z,26.25
2019-03-21T10:33:43.337Z,26.12
2019-03-21T10:34:40.040Z,26.00
2019-03-21T10:35:36.748Z,25.88
2019-03-21T10:36:33.461Z,25.69
2019-03-21T10:37:30.186Z,25.62
2019-03-21T10:38:26.901Z,25.50
2019-03-21T10:39:23.593Z,25.44
2019-03-21T10:40:20.292Z,25.37
2019-03-21T10:41:17.007Z,25.25
2019-03-21T10:42:13.715Z,25.19
2019-03-21T10:43:10.793Z,25.12
2019-03-21T10:44:07.621Z,25.06
2019-03-21T10:45:04.318Z,25.00
2019-03-21T10:46:01.023Z,24.87
2019-03-21T10:46:57.719Z,24.81
2019-03-21T10:47:54.450Z,24.75
2019-03-21T10:48:51.138Z,24.69
2019-03-21T10:49:47.829Z,24.63
2019-03-21T10:50:44.537Z,24.56
2019-03-21T10:51:41.245Z,24.50
2019-03-21T10:52:37.963Z,24.44
2019-03-21T10:53:34.714Z,24.37
2019-03-21T10:54:31.434Z,24.31
2019-03-21T10:55:28.129Z,24.31
2019-03-21T10:56:24.837Z,24.25
2019-03-21T10:57:21.566Z,24.19
2019-03-21T10:58:18.295Z,24.12
2019-03-21T10:59:15.020Z,24.06
2019-03-21T11:00:11.722Z,24.06
2019-03-21T11:01:08.441Z,24.00
2019-03-21T11:02:07.458Z,23.94
2019-03-21T11:03:03.673Z,23.87
2019-03-21T11:04:00.419Z,23.81
2019-03-21T11:04:57.126Z,23.75
2019-03-21T11:05:53.858Z,23.75
2019-03-21T11:06:50.554Z,23.69
2019-03-21T11:07:47.278Z,23.62
2019-03-21T11:08:43.974Z,23.62
2019-03-21T11:09:40.709Z,23.56
2019-03-21T11:10:37.474Z,23.50
2019-03-21T11:11:34.182Z,23.44
2019-03-21T11:12:30.906Z,23.44
2019-03-21T11:13:27.647Z,23.38
2019-03-21T11:14:24.365Z,23.31
2019-03-21T11:15:21.083Z,23.31
2019-03-21T11:16:17.790Z,23.25
2019-03-21T11:17:14.503Z,23.19
2019-03-21T11:18:11.215Z,23.19
2019-03-21T11:19:07.920Z,23.12
2019-03-21T11:20:04.629Z,23.06
2019-03-21T11:21:01.334Z,23.06
2019-03-21T11:22:06.259Z,23.00
2019-03-21T11:22:56.554Z,23.00
2019-03-21T11:23:53.270Z,22.94
2019-03-21T11:24:49.991Z,22.87
2019-03-21T11:25:46.698Z,22.81
2019-03-21T11:26:43.409Z,22.81
2019-03-21T11:27:40.133Z,22.75
2019-03-21T11:28:36.860Z,22.69
2019-03-21T11:29:33.557Z,22.69
2019-03-21T11:30:30.290Z,22.62
2019-03-21T11:31:27.009Z,22.62
2019-03-21T11:32:23.729Z,22.56
2019-03-21T11:33:20.441Z,22.56
2019-03-21T11:34:17.158Z,22.50
2019-03-21T11:35:13.858Z,22.44
2019-03-21T11:36:10.605Z,22.44
2019-03-21T11:37:07.320Z,22.37
2019-03-21T11:38:04.035Z,22.37
2019-03-21T11:39:00.744Z,22.31
2019-03-21T11:39:57.445Z,22.31
2019-03-21T11:40:54.167Z,22.25
2019-03-21T11:41:50.857Z,22.25
2019-03-21T11:42:47.560Z,22.19
2019-03-21T11:43:44.278Z,22.19
2019-03-21T11:44:40.989Z,22.13
2019-03-21T11:45:37.723Z,22.13
2019-03-21T11:46:34.462Z,22.06
2019-03-21T11:47:41.354Z,22.06
2019-03-21T11:48:29.700Z,22.00
2019-03-21T11:49:26.409Z,22.00
2019-03-21T11:50:23.129Z,21.94
2019-03-21T11:51:19.861Z,21.94
2019-03-21T11:52:18.486Z,21.87
2019-03-21T11:53:15.090Z,21.87
2019-03-21T11:54:11.801Z,21.87
2019-03-21T11:55:08.517Z,21.81
2019-03-21T11:56:05.258Z,21.81
2019-03-21T11:57:01.961Z,21.75
2019-03-21T11:57:58.664Z,21.75
2019-03-21T11:58:55.370Z,21.69
2019-03-21T11:59:52.515Z,21.69
2019-03-21T12:00:49.284Z,21.69
2019-03-21T12:01:46.010Z,21.62
2019-03-21T12:02:42.717Z,21.62
2019-03-21T12:03:39.424Z,21.56
2019-03-21T12:04:36.132Z,21.56
2019-03-21T12:05:32.840Z,21.56
2019-03-21T12:06:29.566Z,21.50
2019-03-21T12:07:26.270Z,21.50
2019-03-21T12:08:22.984Z,21.50
2019-03-21T12:09:19.687Z,21.44
2019-03-21T12:10:16.405Z,21.44